Beaver Dam, WI (53916)

4:59 PM CDT on September 02, 2015 (GMT -0500)
APRSWXNET | | Change Station
CLOSE
Current Station
Personal Weather Station
Location: Beaver Dam, WI
Elevation: 904 ft
Nearby Weather Stations

Elev 904 ft 43.45 °N, 88.83 °W | Updated 20 minutes ago

Clear
Clear
86 °F
Feels Like 87 °F
N
2
Wind Variable Wind from SSW
Gusts 11.0 mph

Today
High -- | Low -- °F
--% Chance of Precip.
Yesterday
High -- | Low -- °F
Precip. -- in
6:20 AM 7:29 PM
Waning Gibbous, 77% visible
Pressure 29.96 in
Visibility 10.0 miles
Clouds Clear
Heat Index 87 °F
Dew Point 63 °F
Humidity 46%
Rainfall in
Snow Depth Not available.
UV 2 out of 12
Pollen 10.50 out of 12
Air Quality Not available.
Flu Activity Not available.
METAR KUNU 022155Z AUTO 22008KT 10SM CLR 29/20 A2996 RMK AO2 T02850204
Pressure 29.96 in
Visibility 10.0 miles
Clouds Clear
Heat Index 87 °F
Dew Point 63 °F
Humidity 46%
Rainfall in
Snow Depth Not available.
UV 2 out of 12
Pollen 10.50 out of 12
Air Quality Not available.
Flu Activity Not available.
METAR KUNU 022155Z AUTO 22008KT 10SM CLR 29/20 A2996 RMK AO2 T02850204

10-Day Weather Forecast

×

Almanac

Astronomy

Sep. 02, 2015 Rise Set
Actual Time
Civil Twilight
Nautical Twilight
Astronomical Twilight
Moon
Length of Visible Light
Length of Day
Tomorrow will be .
, % of the Moon is Illuminated

Today's Extremes

State Highs State Lows

Community

WunderPhotos

Upload Photos

1,851,818 photos uploaded!

WunderBlogs® & News

Nearby

Air Quality

  Air Quality AQ Index Pollutant
Not available.

Snow Depth

Station Depth Elevation

Earthquake Activity

City Distance Mag. Time & Date
Minimum magnitude displayed is 2.5.

Coastal Water Temperatures

Place Temperature

Stations

Nearby Weather Stations

Station Location Temp. Windchill Dew Point Humidity Wind Precip. Elev Updated Type